Time;durP1;ratioP1;P1;durP2;ratioP2;P2;SDS_P1;SDS_P2;PMS_P1;PMS_P2;Temp;Humidity;BMP_temperature;BMP_pressure;BME280_temperature;BME280_humidity;BME280_pressure;Samples;Min_cycle;Max_cycle;Signal;HPM_P1;HPM_P2
2022/10/11 00:02:18;;;;;;;14.65;5.40;;;7.90;92.30;;;;;;5073916;28;20024;-47
2022/10/11 00:04:44;;;;;;;10.45;4.70;;;7.90;92.30;;;;;;5073655;28;20080;-49
2022/10/11 00:07:10;;;;;;;8.07;3.80;;;7.90;92.30;;;;;;5073460;28;20095;-48
2022/10/11 00:09:35;;;;;;;13.10;4.90;;;7.90;92.40;;;;;;5073772;28;20032;-47
2022/10/11 00:12:01;;;;;;;8.73;4.78;;;7.80;92.40;;;;;;5073426;28;20021;-47
2022/10/11 00:14:27;;;;;;;15.18;5.70;;;7.80;92.40;;;;;;5072112;28;20062;-48
2022/10/11 00:16:55;;;;;;;10.55;5.97;;;7.90;92.40;;;;;;5073531;28;20020;-47
2022/10/11 00:19:20;;;;;;;12.50;5.43;;;7.80;92.40;;;;;;5073357;28;20024;-46
2022/10/11 00:21:46;;;;;;;8.40;4.55;;;7.80;92.40;;;;;;5073654;28;20449;-47
2022/10/11 00:24:14;;;;;;;11.45;5.03;;;7.80;92.40;;;;;;5073292;28;20024;-47
2022/10/11 00:26:40;;;;;;;20.95;5.85;;;7.80;92.40;;;;;;5073553;28;20448;-48
2022/10/11 00:29:06;;;;;;;9.10;4.72;;;7.80;92.40;;;;;;5073476;28;20024;-48
2022/10/11 00:31:32;;;;;;;17.17;4.70;;;7.80;92.40;;;;;;5073183;28;20425;-48
2022/10/11 00:33:57;;;;;;;11.23;4.55;;;7.80;92.40;;;;;;5073539;28;20073;-49
2022/10/11 00:36:23;;;;;;;14.60;4.80;;;7.70;92.40;;;;;;5073061;28;20016;-48
2022/10/11 00:38:49;;;;;;;9.15;4.40;;;7.70;92.40;;;;;;5072572;28;20025;-49
2022/10/11 00:41:15;;;;;;;13.00;5.72;;;7.70;92.40;;;;;;5073123;28;20032;-49
2022/10/11 00:43:41;;;;;;;11.77;4.25;;;7.60;92.30;;;;;;5073363;28;20372;-48
2022/10/11 00:46:26;;;;;;;7.60;3.60;;;7.50;92.30;;;;;;5073041;28;20028;-50
2022/10/11 00:48:59;;;;;;;11.80;4.60;;;7.50;92.20;;;;;;5073334;28;20021;-48
2022/10/11 00:51:33;;;;;;;10.02;4.05;;;7.50;92.30;;;;;;5073351;28;20089;-48
2022/10/11 00:54:00;;;;;;;11.63;4.65;;;7.50;92.30;;;;;;5073353;28;20032;-49
2022/10/11 00:56:30;;;;;;;14.07;4.07;;;7.50;92.30;;;;;;5071570;28;20044;-47
2022/10/11 00:58:58;;;;;;;8.07;5.03;;;7.50;92.30;;;;;;5073231;28;20504;-50
2022/10/11 01:01:24;;;;;;;12.68;4.65;;;7.40;92.30;;;;;;5072948;28;20028;-49
2022/10/11 01:03:49;;;;;;;13.13;5.40;;;7.50;92.50;;;;;;5072694;28;20446;-47
2022/10/11 01:06:15;;;;;;;9.07;4.63;;;7.50;92.60;;;;;;5072593;28;20024;-48
2022/10/11 01:08:41;;;;;;;11.38;5.72;;;7.50;92.60;;;;;;5072755;28;20051;-47
2022/10/11 01:11:12;;;;;;;11.00;4.28;;;7.50;92.60;;;;;;5072963;28;20376;-47
2022/10/11 01:14:06;;;;;;;11.07;4.63;;;7.50;92.60;;;;;;5071301;28;20067;-47
2022/10/11 01:16:45;;;;;;;15.23;5.68;;;7.50;92.60;;;;;;5072868;28;20095;-47
2022/10/11 01:19:30;;;;;;;11.00;4.70;;;7.50;92.60;;;;;;5076821;28;20037;-50
2022/10/11 01:22:14;;;;;;;10.95;4.97;;;7.50;92.60;;;;;;5076720;28;20447;-48
2022/10/11 01:25:14;;;;;;;9.63;4.97;;;7.50;92.70;;;;;;5075386;28;20056;-49
2022/10/11 01:27:53;;;;;;;12.48;4.78;;;7.50;92.70;;;;;;5076821;28;20029;-48
2022/10/11 01:30:27;;;;;;;12.50;5.82;;;7.50;92.80;;;;;;5076559;28;20098;-47
2022/10/11 01:33:05;;;;;;;16.90;6.80;;;7.50;92.90;;;;;;5075483;28;20147;-47
2022/10/11 01:35:50;;;;;;;20.00;6.18;;;7.60;92.90;;;;;;5076625;28;20107;-47
2022/10/11 01:38:41;;;;;;;13.23;5.65;;;7.70;93.00;;;;;;5076762;28;20075;-48
2022/10/11 01:41:18;;;;;;;;;;;7.50;92.90;;;;;;5076601;28;20028;-47
2022/10/11 01:43:46;;;;;;;19.08;4.80;;;7.40;92.90;;;;;;5076206;28;19967;-47
2022/10/11 01:46:12;;;;;;;13.32;5.70;;;7.40;92.90;;;;;;5076106;28;20024;-47
2022/10/11 01:48:52;;;;;;;14.35;5.03;;;7.30;92.80;;;;;;5074956;28;20480;-47
2022/10/11 01:51:26;;;;;;;13.82;4.57;;;7.30;92.80;;;;;;5076437;28;20495;-48
2022/10/11 01:54:21;;;;;;;13.73;4.55;;;7.30;92.80;;;;;;5076217;28;20036;-48
2022/10/11 01:57:11;;;;;;;10.93;4.60;;;7.20;92.80;;;;;;5074567;28;20135;-47
2022/10/11 02:00:14;;;;;;;12.38;4.88;;;7.20;92.80;;;;;;5076233;28;20025;-48
2022/10/11 02:03:07;;;;;;;8.98;5.40;;;7.20;92.80;;;;;;5074583;28;20051;-48
2022/10/11 02:05:58;;;;;;;12.88;4.95;;;7.20;92.80;;;;;;5075007;28;20082;-48
2022/10/11 02:08:46;;;;;;;15.07;6.00;;;7.10;92.80;;;;;;5075904;28;20029;-48
2022/10/11 02:11:18;;;;;;;15.38;4.88;;;7.10;92.70;;;;;;5076072;28;20028;-48
2022/10/11 02:13:53;;;;;;;11.50;4.72;;;7.10;92.70;;;;;;5075998;28;20037;-48
2022/10/11 02:16:25;;;;;;;11.60;5.75;;;7.00;92.60;;;;;;5076018;28;20029;-48
2022/10/11 02:18:54;;;;;;;10.15;4.18;;;6.90;92.60;;;;;;5075829;28;20024;-48
2022/10/11 02:21:22;;;;;;;15.48;5.43;;;6.90;92.50;;;;;;5074404;28;20028;-48
2022/10/11 02:23:59;;;;;;;14.57;4.53;;;6.90;92.50;;;;;;5075592;28;20035;-48
2022/10/11 02:26:28;;;;;;;11.82;4.38;;;6.80;92.60;;;;;;5075699;28;20100;-47
2022/10/11 02:28:59;;;;;;;10.87;3.97;;;6.80;92.60;;;;;;5074898;28;20123;-47
2022/10/11 02:31:26;;;;;;;16.48;6.30;;;6.80;92.60;;;;;;5075732;28;20111;-49
2022/10/11 02:34:04;;;;;;;11.30;4.70;;;6.90;92.60;;;;;;5074069;28;20052;-48
2022/10/11 02:36:41;;;;;;;13.73;5.68;;;6.80;92.50;;;;;;5075451;28;20032;-49
2022/10/11 02:39:15;;;;;;;8.82;4.38;;;6.80;92.50;;;;;;5075409;28;20528;-48
2022/10/11 02:41:42;;;;;;;21.42;4.88;;;6.80;92.40;;;;;;5075429;28;20411;-47
2022/10/11 02:44:22;;;;;;;20.92;6.13;;;6.80;92.40;;;;;;5075389;28;20147;-47
2022/10/11 02:46:49;;;;;;;10.25;5.50;;;6.70;92.40;;;;;;5075323;28;20109;-48
2022/10/11 02:49:16;;;;;;;8.68;4.07;;;6.80;92.40;;;;;;5075063;28;20047;-48
2022/10/11 02:51:42;;;;;;;14.18;4.78;;;6.70;92.30;;;;;;5075276;28;20021;-50
2022/10/11 02:54:08;;;;;;;9.25;5.43;;;6.60;92.20;;;;;;5075075;28;20543;-49
2022/10/11 02:56:33;;;;;;;8.95;4.88;;;6.60;92.20;;;;;;5074990;28;20370;-48
2022/10/11 02:58:59;;;;;;;17.13;6.50;;;6.60;92.20;;;;;;5074840;28;20326;-47
2022/10/11 03:01:25;;;;;;;16.50;6.47;;;6.60;92.30;;;;;;5075050;28;20472;-49
2022/10/11 03:03:50;;;;;;;24.75;6.47;;;6.70;92.50;;;;;;5074977;28;20046;-48
2022/10/11 03:06:16;;;;;;;14.00;5.85;;;6.70;92.60;;;;;;5075079;28;20052;-48
2022/10/11 03:08:42;;;;;;;19.67;7.57;;;6.80;92.70;;;;;;5074811;28;20024;-48
2022/10/11 03:11:07;;;;;;;12.50;4.97;;;6.80;92.80;;;;;;5074992;28;20039;-47
2022/10/11 03:13:33;;;;;;;14.95;5.82;;;6.80;92.80;;;;;;5074649;28;20028;-48
2022/10/11 03:15:59;;;;;;;17.42;5.97;;;6.80;92.80;;;;;;5074468;28;20036;-48
2022/10/11 03:18:25;;;;;;;20.10;6.15;;;6.80;92.80;;;;;;5074544;28;20020;-48
2022/10/11 03:20:50;;;;;;;21.85;6.65;;;6.80;92.80;;;;;;5074555;28;20091;-48
2022/10/11 03:23:16;;;;;;;40.70;8.30;;;6.80;92.90;;;;;;5074774;28;20021;-47
2022/10/11 03:25:44;;;;;;;24.20;7.78;;;6.80;92.80;;;;;;5074521;28;20033;-49
2022/10/11 03:28:10;;;;;;;22.40;7.45;;;6.80;92.80;;;;;;5074406;28;20116;-50
2022/10/11 03:30:35;;;;;;;17.63;6.45;;;6.70;92.70;;;;;;5074404;28;20060;-50
2022/10/11 03:33:01;;;;;;;22.95;7.82;;;6.70;92.80;;;;;;5074197;28;20107;-48
2022/10/11 03:35:27;;;;;;;26.05;9.13;;;6.80;93.00;;;;;;5072938;28;20085;-50
2022/10/11 03:37:52;;;;;;;28.60;9.40;;;6.80;93.10;;;;;;5074548;28;20354;-52
2022/10/11 03:40:18;;;;;;;23.60;8.05;;;6.80;93.20;;;;;;5073741;28;20524;-51
2022/10/11 03:42:44;;;;;;;16.70;7.38;;;6.70;93.20;;;;;;5074793;28;20052;-51
2022/10/11 03:45:10;;;;;;;14.90;7.38;;;6.70;93.30;;;;;;5074240;28;20052;-48
2022/10/11 03:47:38;;;;;;;22.08;7.82;;;6.70;93.40;;;;;;5073793;28;20025;-49
2022/10/11 03:50:08;;;;;;;26.15;7.90;;;6.70;93.50;;;;;;5075195;28;20029;-51
2022/10/11 03:52:34;;;;;;;25.95;8.45;;;6.60;93.60;;;;;;5075355;28;20063;-51
2022/10/11 03:55:00;;;;;;;25.95;8.85;;;6.60;93.70;;;;;;5074100;28;20047;-47
2022/10/11 03:57:25;;;;;;;30.08;8.18;;;6.60;93.70;;;;;;5073031;28;20202;-50
2022/10/11 03:59:51;;;;;;;17.90;6.82;;;6.60;93.70;;;;;;5074415;28;20020;-48
2022/10/11 04:02:17;;;;;;;21.95;7.10;;;6.50;93.70;;;;;;5074799;28;20028;-49
2022/10/11 04:04:42;;;;;;;22.85;7.65;;;6.40;93.70;;;;;;5074599;28;20036;-50
2022/10/11 04:07:08;;;;;;;16.88;8.23;;;6.40;93.70;;;;;;5075251;28;20499;-50
2022/10/11 04:09:34;;;;;;;21.92;8.63;;;6.40;93.70;;;;;;5073608;28;20032;-50
2022/10/11 04:12:00;;;;;;;21.08;7.68;;;6.30;93.70;;;;;;5073595;28;20183;-48
2022/10/11 04:14:25;;;;;;;28.48;8.40;;;6.40;93.70;;;;;;5073948;28;20021;-49
2022/10/11 04:16:51;;;;;;;26.88;8.82;;;6.30;93.70;;;;;;5073411;28;20416;-49
2022/10/11 04:19:17;;;;;;;19.67;7.70;;;6.30;93.70;;;;;;5073452;28;20495;-50
2022/10/11 04:21:43;;;;;;;20.52;8.80;;;6.30;93.70;;;;;;5073401;28;20055;-49
2022/10/11 04:24:10;;;;;;;19.83;8.43;;;6.30;93.70;;;;;;5073587;28;20021;-48
2022/10/11 04:26:36;;;;;;;25.63;8.77;;;6.30;93.70;;;;;;5073314;28;20491;-49
2022/10/11 04:29:02;;;;;;;16.75;7.00;;;6.40;93.80;;;;;;5071955;28;20024;-49
2022/10/11 04:31:27;;;;;;;19.95;6.75;;;6.30;93.50;;;;;;5073185;28;20028;-50
2022/10/11 04:33:53;;;;;;;19.58;6.28;;;6.20;93.40;;;;;;5073212;28;20032;-48
2022/10/11 04:36:19;;;;;;;24.73;8.38;;;6.20;93.30;;;;;;5073366;28;20025;-47
2022/10/11 04:38:44;;;;;;;20.23;7.80;;;6.10;93.30;;;;;;5073279;28;20103;-48
2022/10/11 04:41:13;;;;;;;21.17;10.63;;;6.10;93.30;;;;;;5073342;28;20021;-48
2022/10/11 04:43:39;;;;;;;21.33;8.40;;;6.20;93.40;;;;;;5073337;28;20028;-47
2022/10/11 04:46:05;;;;;;;29.00;9.65;;;6.20;93.40;;;;;;5073078;28;20104;-49
2022/10/11 04:48:31;;;;;;;30.55;10.18;;;6.20;93.40;;;;;;5072886;28;20024;-46
2022/10/11 04:50:57;;;;;;;22.95;8.85;;;6.30;93.50;;;;;;5072820;28;20031;-50
2022/10/11 04:53:23;;;;;;;29.67;10.27;;;6.30;93.50;;;;;;5072954;28;20040;-49
2022/10/11 04:55:57;;;;;;;22.13;9.98;;;6.40;93.60;;;;;;5072592;28;20508;-49
2022/10/11 04:58:23;;;;;;;46.00;10.18;;;6.40;93.60;;;;;;5073265;28;20032;-49
2022/10/11 05:00:48;;;;;;;38.17;10.65;;;6.40;93.60;;;;;;5073404;28;20089;-47
2022/10/11 05:03:15;;;;;;;38.67;11.82;;;6.40;93.70;;;;;;5073314;28;20032;-47
2022/10/11 05:05:41;;;;;;;28.15;12.05;;;6.40;93.80;;;;;;5073758;28;20460;-50
2022/10/11 05:08:07;;;;;;;38.38;12.18;;;6.40;93.80;;;;;;5071613;28;20487;-47
2022/10/11 05:10:33;;;;;;;35.47;12.32;;;6.40;93.90;;;;;;5073362;28;20021;-47
2022/10/11 05:12:58;;;;;;;27.88;11.32;;;6.40;93.90;;;;;;5073223;28;20025;-47
2022/10/11 05:15:24;;;;;;;30.85;10.40;;;6.40;94.00;;;;;;5072848;28;20028;-47
2022/10/11 05:17:49;;;;;;;32.72;10.68;;;6.40;94.10;;;;;;5072996;28;20106;-47
2022/10/11 05:20:15;;;;;;;20.67;9.35;;;6.40;94.10;;;;;;5072969;28;20107;-47
2022/10/11 05:22:41;;;;;;;27.77;10.00;;;6.40;94.10;;;;;;5072744;28;20019;-47
2022/10/11 05:25:07;;;;;;;27.25;9.98;;;6.30;94.20;;;;;;5071590;28;20074;-48
2022/10/11 05:27:32;;;;;;;26.30;10.88;;;6.30;94.20;;;;;;5072711;28;20489;-46
2022/10/11 05:29:58;;;;;;;25.20;10.02;;;6.30;94.20;;;;;;5072663;28;20031;-50
2022/10/11 17:06:19;;;;;;;13.32;6.78;;;12.40;67.80;;;;;;5112600;27;20571;-51
2022/10/11 17:08:44;;;;;;;23.10;6.63;;;12.30;68.50;;;;;;5112354;28;20028;-49
2022/10/11 17:11:10;;;;;;;13.35;5.88;;;12.20;69.00;;;;;;5112076;28;20078;-56
2022/10/11 17:13:36;;;;;;;19.23;6.32;;;12.10;69.70;;;;;;5112232;28;20020;-49
2022/10/11 17:16:01;;;;;;;20.10;6.93;;;12.00;70.40;;;;;;5112840;28;20478;-52
2022/10/11 17:18:27;;;;;;;14.93;6.00;;;11.90;70.90;;;;;;5112024;28;20035;-51
2022/10/11 17:21:08;;;;;;;17.63;7.97;;;11.80;71.60;;;;;;5112200;28;20501;-52
2022/10/11 17:23:34;;;;;;;;;;;11.70;72.20;;;;;;5112000;28;20123;-41
2022/10/11 17:26:05;;;;;;;23.27;6.38;;;11.60;72.60;;;;;;5114849;28;19911;-41
2022/10/11 17:28:32;;;;;;;15.00;7.63;;;11.50;73.10;;;;;;5111667;28;20455;-40
2022/10/11 17:30:59;;;;;;;15.82;5.95;;;11.50;73.30;;;;;;5110978;28;20027;-41
2022/10/11 17:33:25;;;;;;;29.00;6.47;;;11.50;73.80;;;;;;5110816;28;20052;-39
2022/10/11 17:35:52;;;;;;;11.90;6.72;;;11.40;74.10;;;;;;5110616;28;20490;-39
2022/10/11 17:38:19;;;;;;;17.67;10.02;;;11.40;74.60;;;;;;5110842;28;20077;-41
2022/10/11 17:40:46;;;;;;;18.63;8.80;;;11.30;75.10;;;;;;5109138;28;20043;-39
2022/10/11 17:43:12;;;;;;;18.63;7.95;;;11.30;75.30;;;;;;5111339;28;20028;-51
2022/10/11 17:45:38;;;;;;;23.33;9.13;;;11.30;75.40;;;;;;5110751;28;20020;-49
2022/10/11 17:48:03;;;;;;;15.15;7.95;;;11.10;75.30;;;;;;5111009;28;20421;-49
2022/10/11 17:50:30;;;;;;;18.15;7.60;;;11.10;75.60;;;;;;5110749;28;20032;-48
2022/10/11 17:52:56;;;;;;;19.17;7.90;;;11.00;75.70;;;;;;5110719;28;20357;-51
2022/10/11 17:55:23;;;;;;;15.13;7.13;;;11.00;76.10;;;;;;5110507;28;20031;-48
2022/10/11 17:57:49;;;;;;;19.85;8.20;;;11.00;76.50;;;;;;5110603;28;20034;-49
2022/10/11 18:00:16;;;;;;;20.45;8.13;;;10.90;77.20;;;;;;5110946;28;20024;-50
2022/10/11 18:02:41;;;;;;;18.45;7.38;;;10.80;77.40;;;;;;5110485;28;20368;-49
2022/10/11 18:05:08;;;;;;;21.48;9.68;;;10.80;77.60;;;;;;5108730;28;20090;-48
2022/10/11 18:07:33;;;;;;;20.63;9.00;;;10.70;78.00;;;;;;5110829;28;20356;-51
2022/10/11 18:09:59;;;;;;;31.35;10.10;;;10.70;78.30;;;;;;5110186;28;20047;-51
2022/10/11 18:12:25;;;;;;;24.52;9.02;;;10.60;78.50;;;;;;5108995;28;20051;-50
2022/10/11 18:14:51;;;;;;;18.88;8.95;;;10.50;78.70;;;;;;5110544;28;20463;-50
2022/10/11 18:17:17;;;;;;;16.02;7.72;;;10.50;79.00;;;;;;5099262;28;20101;-39
2022/10/11 18:19:43;;;;;;;12.88;7.07;;;10.40;79.20;;;;;;5095326;28;20046;-40
2022/10/11 18:22:09;;;;;;;16.52;7.75;;;10.30;79.60;;;;;;5096879;28;20032;-39
2022/10/11 18:24:34;;;;;;;19.60;8.68;;;10.30;79.80;;;;;;5096536;28;20032;-41
2022/10/11 18:27:00;;;;;;;22.95;8.65;;;10.30;79.90;;;;;;5096283;28;20441;-39
2022/10/11 18:29:26;;;;;;;25.77;9.75;;;10.20;80.00;;;;;;5096232;28;20408;-39
2022/10/11 18:31:51;;;;;;;18.73;9.00;;;10.20;80.20;;;;;;5097745;28;20074;-39
2022/10/11 18:34:17;;;;;;;20.20;9.25;;;10.10;80.30;;;;;;5096555;28;20476;-39
2022/10/11 18:36:43;;;;;;;21.67;9.38;;;10.10;80.40;;;;;;5096126;28;20028;-39
2022/10/11 18:39:12;;;;;;;17.73;9.27;;;10.10;80.50;;;;;;5095864;28;20028;-40
2022/10/11 18:41:38;;;;;;;18.70;8.75;;;10.00;80.60;;;;;;5096281;28;20427;-39
2022/10/11 18:44:07;;;;;;;22.80;7.40;;;9.90;80.60;;;;;;5096426;28;20491;-42
2022/10/11 18:46:33;;;;;;;19.83;8.18;;;9.90;80.70;;;;;;5095990;28;20095;-40
2022/10/11 18:49:02;;;;;;;21.67;9.60;;;9.80;81.00;;;;;;5096046;28;20082;-39
2022/10/11 18:51:34;;;;;;;26.77;9.63;;;9.80;81.10;;;;;;5095787;28;20020;-39
2022/10/11 18:54:00;;;;;;;25.17;10.68;;;9.80;81.50;;;;;;5096119;28;20469;-40
2022/10/11 18:56:28;;;;;;;25.33;11.88;;;9.80;81.20;;;;;;5095905;28;20072;-40
2022/10/11 18:58:56;;;;;;;24.48;11.60;;;9.80;81.20;;;;;;5095896;28;20107;-42
2022/10/11 19:01:28;;;;;;;22.23;11.07;;;9.60;81.50;;;;;;5095949;28;20019;-40
2022/10/11 19:03:55;;;;;;;36.08;12.05;;;9.60;82.10;;;;;;5095390;28;20463;-39
2022/10/11 19:06:23;;;;;;;24.67;11.13;;;9.60;82.50;;;;;;5095775;28;20020;-39
2022/10/11 19:08:52;;;;;;;24.67;10.95;;;9.50;82.50;;;;;;5095769;28;20378;-39
2022/10/11 19:11:24;;;;;;;28.83;11.52;;;9.50;83.00;;;;;;5094906;28;20107;-39
2022/10/11 19:13:58;;;;;;;26.48;10.90;;;9.40;83.00;;;;;;5096313;28;20047;-40
2022/10/11 19:16:25;;;;;;;29.45;11.02;;;9.30;83.20;;;;;;5095562;28;20020;-41
2022/10/11 19:18:52;;;;;;;28.55;12.18;;;9.30;83.30;;;;;;5095162;28;20024;-39
2022/10/11 19:21:18;;;;;;;27.55;10.63;;;9.20;83.40;;;;;;5095553;28;20024;-39
2022/10/11 19:23:45;;;;;;;19.15;10.27;;;9.20;83.50;;;;;;5097570;28;20031;-39
2022/10/11 19:26:17;;;;;;;23.33;9.65;;;9.20;83.60;;;;;;5095444;28;20380;-39
2022/10/11 19:28:43;;;;;;;22.05;11.13;;;9.20;83.60;;;;;;5094609;28;20020;-40
2022/10/11 19:31:11;;;;;;;22.35;11.07;;;9.20;83.60;;;;;;5095520;28;20036;-40
2022/10/11 19:33:38;;;;;;;19.73;9.07;;;9.20;83.60;;;;;;5095180;28;20091;-40
2022/10/11 19:36:05;;;;;;;19.42;8.25;;;9.20;83.50;;;;;;5094999;28;20408;-39
2022/10/11 19:38:32;;;;;;;18.33;8.55;;;9.20;83.40;;;;;;5093394;28;20128;-38
2022/10/11 19:41:03;;;;;;;20.65;8.85;;;9.20;83.20;;;;;;5094974;28;20373;-40
2022/10/11 19:43:30;;;;;;;23.38;9.20;;;9.20;83.10;;;;;;5095277;28;20039;-40
2022/10/11 19:46:00;;;;;;;19.67;9.65;;;9.10;83.10;;;;;;5094891;28;20069;-40
2022/10/11 19:48:25;;;;;;;20.30;7.93;;;9.10;83.00;;;;;;5094974;28;20417;-38
2022/10/11 19:50:51;;;;;;;20.23;9.85;;;9.10;83.00;;;;;;5094997;28;20050;-39
2022/10/11 19:53:17;;;;;;;15.63;8.18;;;9.10;83.00;;;;;;5094801;28;20020;-40
2022/10/11 19:55:42;;;;;;;16.48;8.52;;;9.10;83.00;;;;;;5094594;28;20024;-40
2022/10/11 19:58:08;;;;;;;22.10;8.48;;;9.10;82.90;;;;;;5094629;28;20056;-40
2022/10/11 20:00:33;;;;;;;23.98;10.32;;;9.00;82.70;;;;;;5094487;28;20024;-39
2022/10/11 20:03:00;;;;;;;17.70;7.97;;;9.10;82.50;;;;;;5094225;28;20360;-40
2022/10/11 20:05:26;;;;;;;22.20;8.70;;;9.00;82.40;;;;;;5093888;28;20039;-40
2022/10/11 20:07:51;;;;;;;24.08;9.00;;;9.00;82.20;;;;;;5095114;28;20089;-39
2022/10/11 20:10:17;;;;;;;19.45;8.82;;;9.00;82.00;;;;;;5094427;28;20031;-39
2022/10/11 20:12:43;;;;;;;22.83;10.15;;;9.00;81.90;;;;;;5094389;28;20056;-40
2022/10/11 20:15:09;;;;;;;15.20;8.27;;;9.00;81.70;;;;;;5094458;28;20028;-39
2022/10/11 20:17:47;;;;;;;17.08;6.75;;;9.00;81.60;;;;;;5093961;28;20024;-40
2022/10/11 20:20:13;;;;;;;26.90;9.45;;;9.00;81.50;;;;;;5094377;28;20027;-40
2022/10/11 20:22:39;;;;;;;24.13;7.78;;;9.00;81.60;;;;;;5094410;28;20032;-40
2022/10/11 20:25:05;;;;;;;23.95;7.13;;;9.00;81.70;;;;;;5094108;28;20153;-40
2022/10/11 20:27:31;;;;;;;22.42;9.98;;;9.00;81.80;;;;;;5094491;28;20101;-39
2022/10/11 20:29:56;;;;;;;16.77;7.13;;;8.90;81.90;;;;;;5093715;28;20473;-41
2022/10/11 20:32:22;;;;;;;16.05;7.07;;;8.90;82.00;;;;;;5092745;28;20028;-39
2022/10/11 20:34:48;;;;;;;20.05;7.10;;;8.80;82.20;;;;;;5094895;28;20507;-41
2022/10/11 20:37:13;;;;;;;23.98;7.95;;;8.80;82.20;;;;;;5094434;28;20024;-39
2022/10/11 20:39:39;;;;;;;14.13;6.25;;;8.80;82.30;;;;;;5093921;28;20368;-39
2022/10/11 20:42:05;;;;;;;15.90;7.50;;;8.80;82.50;;;;;;5094518;28;20048;-40
2022/10/11 20:44:30;;;;;;;21.17;7.72;;;8.80;82.60;;;;;;5093240;28;20032;-40
2022/10/11 20:46:56;;;;;;;13.95;6.63;;;8.70;82.80;;;;;;5094038;28;20047;-39
2022/10/11 20:49:21;;;;;;;19.85;7.72;;;8.60;83.00;;;;;;5093159;28;20024;-39
2022/10/11 20:51:48;;;;;;;17.30;7.82;;;8.60;83.20;;;;;;5093393;28;20031;-40
2022/10/11 20:54:14;;;;;;;21.70;8.18;;;8.50;83.50;;;;;;5093090;28;20380;-40
2022/10/11 20:56:40;;;;;;;14.48;7.22;;;8.50;83.70;;;;;;5092973;28;20244;-39
2022/10/11 20:59:06;;;;;;;20.48;7.32;;;8.40;83.80;;;;;;5093255;28;20479;-40
2022/10/11 21:01:37;;;;;;;14.43;6.15;;;8.40;83.90;;;;;;5093113;28;20016;-39
2022/10/11 21:04:03;;;;;;;17.35;7.20;;;8.40;84.00;;;;;;5093133;28;20020;-39
2022/10/11 21:06:31;;;;;;;14.85;7.22;;;8.40;84.10;;;;;;5093034;28;20036;-39
2022/10/11 21:08:57;;;;;;;16.75;8.82;;;8.30;84.00;;;;;;5092935;28;20020;-40
2022/10/11 21:11:28;;;;;;;18.60;7.68;;;8.30;84.10;;;;;;5093051;28;20491;-40
2022/10/11 21:14:04;;;;;;;;;;;8.30;84.30;;;;;;5093811;28;20393;-39
2022/10/11 21:16:29;;;;;;;13.57;7.72;;;8.30;84.50;;;;;;5092985;28;19942;-40
2022/10/11 21:18:57;;;;;;;19.40;7.57;;;8.20;84.60;;;;;;5093099;28;20107;-39
2022/10/11 21:21:24;;;;;;;14.63;6.45;;;8.20;84.90;;;;;;5093778;28;20031;-39
2022/10/11 21:23:56;;;;;;;19.30;8.98;;;8.10;85.10;;;;;;5093185;28;20070;-39
2022/10/11 21:26:22;;;;;;;19.92;8.00;;;8.10;85.30;;;;;;5092929;28;20031;-39
2022/10/11 21:28:48;;;;;;;19.05;8.77;;;8.00;85.50;;;;;;5093002;28;20025;-39
2022/10/11 21:31:16;;;;;;;23.88;10.00;;;7.90;85.60;;;;;;5093138;28;20035;-39
2022/10/11 21:33:43;;;;;;;19.50;9.63;;;7.90;85.80;;;;;;5092773;28;20070;-39
2022/10/11 21:36:11;;;;;;;18.50;9.55;;;7.80;85.90;;;;;;5093520;28;20127;-39
2022/10/11 21:38:37;;;;;;;23.90;10.52;;;7.80;86.00;;;;;;5093134;28;20058;-39
2022/10/11 21:41:08;;;;;;;22.75;9.70;;;7.80;86.10;;;;;;5092899;28;20437;-39
2022/10/11 21:43:36;;;;;;;19.58;8.90;;;7.80;86.10;;;;;;5091617;28;20043;-40
2022/10/11 21:46:14;;;;;;;19.58;8.35;;;7.80;86.10;;;;;;5093466;28;20483;-39
2022/10/11 21:48:40;;;;;;;18.77;7.72;;;7.80;86.10;;;;;;5093178;28;20427;-38
2022/10/11 21:51:06;;;;;;;23.63;7.93;;;7.80;86.30;;;;;;5093337;28;20464;-41
2022/10/11 21:53:32;;;;;;;17.58;7.28;;;7.80;86.30;;;;;;5096789;28;20024;-40
2022/10/11 21:55:59;;;;;;;14.48;7.35;;;7.80;86.50;;;;;;5096625;28;20024;-40
2022/10/11 21:58:25;;;;;;;24.70;10.13;;;7.70;86.40;;;;;;5096647;28;20110;-41
2022/10/11 22:00:51;;;;;;;17.38;6.57;;;7.70;86.50;;;;;;5096749;28;20024;-40
2022/10/11 22:03:17;;;;;;;11.48;7.07;;;7.70;86.60;;;;;;5096607;28;20383;-40
2022/10/11 22:05:44;;;;;;;15.90;7.18;;;7.60;86.70;;;;;;5096196;28;20040;-39
2022/10/11 22:08:11;;;;;;;16.77;6.93;;;7.60;86.70;;;;;;5096597;28;20081;-40
2022/10/11 22:10:37;;;;;;;17.88;8.60;;;7.60;86.80;;;;;;5096369;28;20020;-38
2022/10/11 22:13:03;;;;;;;18.10;7.63;;;7.60;86.90;;;;;;5096399;28;20031;-40
2022/10/11 22:15:31;;;;;;;17.65;8.30;;;7.60;86.90;;;;;;5097011;28;20372;-39
2022/10/11 22:17:57;;;;;;;14.88;6.65;;;7.60;87.00;;;;;;5096832;28;20110;-40
2022/10/11 22:20:22;;;;;;;11.02;6.25;;;7.60;86.90;;;;;;5096697;28;20457;-39
2022/10/11 22:22:48;;;;;;;18.48;7.40;;;7.50;87.10;;;;;;5096205;28;20074;-40
2022/10/11 22:25:13;;;;;;;20.25;7.90;;;7.60;87.20;;;;;;5096405;28;20028;-49
2022/10/11 22:27:39;;;;;;;14.38;6.55;;;7.60;87.30;;;;;;5096349;28;20032;-49
2022/10/11 22:30:05;;;;;;;12.35;6.32;;;7.50;87.30;;;;;;5095804;28;20031;-49
2022/10/11 22:32:31;;;;;;;18.27;7.65;;;7.50;87.40;;;;;;5096024;28;20048;-50
2022/10/11 22:34:56;;;;;;;21.55;8.25;;;7.50;87.40;;;;;;5095771;28;20066;-48
2022/10/11 22:37:22;;;;;;;20.90;8.40;;;7.40;87.40;;;;;;5095815;28;20417;-50
2022/10/11 22:39:48;;;;;;;17.10;9.38;;;7.40;87.50;;;;;;5095569;28;20047;-50
2022/10/11 22:42:13;;;;;;;21.95;9.63;;;7.40;87.60;;;;;;5096588;28;20444;-53
2022/10/11 22:44:39;;;;;;;16.95;9.27;;;7.40;87.70;;;;;;5095546;28;20024;-49
2022/10/11 22:47:04;;;;;;;23.05;7.93;;;7.40;87.40;;;;;;5096968;28;20408;-49
2022/10/11 22:49:30;;;;;;;15.52;9.10;;;7.20;87.20;;;;;;5095769;28;20020;-48
2022/10/11 22:51:56;;;;;;;24.27;7.43;;;7.20;87.30;;;;;;5094235;28;20027;-49
2022/10/11 22:54:21;;;;;;;17.48;7.80;;;7.10;87.40;;;;;;5095578;28;20395;-50
2022/10/11 22:56:47;;;;;;;18.02;7.40;;;7.10;87.50;;;;;;5095691;28;20077;-49
2022/10/11 22:59:12;;;;;;;19.45;8.38;;;7.00;87.70;;;;;;5095282;28;20028;-51
2022/10/11 23:01:38;;;;;;;19.77;7.57;;;7.00;87.80;;;;;;5095413;28;20032;-49
2022/10/11 23:04:04;;;;;;;12.93;6.03;;;7.00;87.80;;;;;;5095212;28;20020;-48
2022/10/11 23:06:29;;;;;;;15.55;8.05;;;7.00;87.90;;;;;;5095542;28;20102;-50
2022/10/11 23:08:55;;;;;;;11.85;7.45;;;7.00;88.00;;;;;;5095607;28;20016;-48
2022/10/11 23:11:20;;;;;;;16.55;7.40;;;7.00;88.20;;;;;;5095114;28;20383;-49
2022/10/11 23:13:46;;;;;;;17.30;7.20;;;7.10;87.90;;;;;;5095109;28;20031;-49
2022/10/11 23:16:12;;;;;;;16.08;7.72;;;7.00;87.80;;;;;;5095065;28;20495;-49
2022/10/11 23:18:38;;;;;;;21.85;7.13;;;6.90;87.90;;;;;;5094951;28;20418;-51
2022/10/11 23:21:04;;;;;;;14.10;6.65;;;6.90;88.00;;;;;;5095161;28;20078;-48
2022/10/11 23:23:30;;;;;;;13.98;6.55;;;6.80;88.10;;;;;;5095176;28;20024;-50
2022/10/11 23:26:05;;;;;;;14.98;6.43;;;6.90;88.20;;;;;;5095510;28;20452;-49
2022/10/11 23:28:31;;;;;;;13.27;7.07;;;7.00;88.50;;;;;;5094643;28;20020;-49
2022/10/11 23:30:56;;;;;;;11.00;6.13;;;7.00;88.20;;;;;;5094941;28;20131;-49
2022/10/11 23:33:22;;;;;;;11.65;6.53;;;6.90;88.30;;;;;;5094964;28;20028;-49
2022/10/11 23:35:47;;;;;;;17.10;8.38;;;6.90;88.30;;;;;;5094806;28;20032;-48
2022/10/11 23:38:13;;;;;;;16.75;6.78;;;6.90;88.50;;;;;;5094561;28;20502;-48
2022/10/11 23:40:39;;;;;;;13.13;7.82;;;6.80;88.10;;;;;;5094355;28;20036;-49
2022/10/11 23:43:04;;;;;;;13.52;7.85;;;6.80;88.20;;;;;;5094547;28;20020;-50
2022/10/11 23:45:30;;;;;;;18.15;8.57;;;6.70;88.30;;;;;;5093143;28;20081;-48
2022/10/11 23:47:55;;;;;;;22.00;8.30;;;6.70;88.40;;;;;;5094551;28;20060;-49
2022/10/11 23:50:21;;;;;;;21.45;9.52;;;6.70;88.50;;;;;;5094329;28;20020;-49
2022/10/11 23:52:47;;;;;;;15.13;7.18;;;6.70;88.50;;;;;;5094542;28;20028;-49
2022/10/11 23:55:12;;;;;;;14.57;7.70;;;6.70;88.60;;;;;;5094444;28;20047;-50
2022/10/11 23:57:38;;;;;;;16.48;8.57;;;6.70;88.60;;;;;;5094089;28;20062;-49
